Terminal Aerodrome Forecast
Issued by NWS

Home | Current Version | Previous Version | Text Only | Print | Product List | Glossary On
Versions: 1 2 3 4 5 6 7 8 9 10 11 12 13
000
FTUS46 KOTX 221138
TAFCOE
TAF
KCOE 221138Z 2212/2312 03009KT P6SM VCSH SCT040 BKN080
      TEMPO 2213/2216 6SM -SHSN SCT028 OVC040
     FM222000 03008KT P6SM SCT060 BKN200
     FM230000 03006KT P6SM SCT200=

USA.gov is the U.S. government's official web portal to all federal, state and local government web resources and services.